Time;durP1;ratioP1;P1;durP2;ratioP2;P2;SDS_P1;SDS_P2;PMS_P1;PMS_P2;Temp;Humidity;BMP_temperature;BMP_pressure;BME280_temperature;BME280_humidity;BME280_pressure;Samples;Min_cycle;Max_cycle;Signal;HPM_P1;HPM_P2
2023/10/01 00:01:32;;;;;;;;;;;;;;;;;;5051742;28;19956;-64
2023/10/01 00:03:58;;;;;;;;;;;;;;;;;;5052176;28;19983;-63
2023/10/01 00:06:25;;;;;;;;;;;;;;;;;;5053158;28;19973;-63
2023/10/01 00:08:53;;;;;;;;;;;;;;;;;;5053035;28;20362;-63
2023/10/01 00:11:19;;;;;;;;;;;;;;;;;;5053051;28;20066;-63
2023/10/01 00:13:45;;;;;;;;;;;;;;;;;;5052507;28;20008;-63
2023/10/01 00:16:11;;;;;;;;;;;;;;;;;;5051962;28;20308;-63
2023/10/01 00:18:37;;;;;;;;;;;;;;;;;;5051158;28;19925;-64
2023/10/01 00:21:03;;;;;;;;;;;;;;;;;;5052236;28;19946;-63
2023/10/01 00:23:29;;;;;;;;;;;;;;;;;;5051081;28;20011;-63
2023/10/01 00:25:57;;;;;;;;;;;;;;;;;;5052084;28;19925;-64
2023/10/01 00:28:23;;;;;;;;;;;;;;;;;;5050598;28;19952;-63
2023/10/01 00:30:49;;;;;;;;;;;;;;;;;;5052043;28;19928;-63
2023/10/01 00:33:15;;;;;;;;;;;;;;;;;;5051617;28;19925;-64
2023/10/01 00:35:41;;;;;;;;;;;;;;;;;;5051647;28;20058;-63
2023/10/01 00:38:07;;;;;;;;;;;;;;;;;;5051625;28;20004;-66
2023/10/01 00:40:33;;;;;;;;;;;;;;;;;;5051794;28;20349;-64
2023/10/01 00:42:59;;;;;;;;;;;;;;;;;;5050831;28;19920;-63
2023/10/01 00:45:25;;;;;;;;;;;;;;;;;;5050639;28;19925;-63
2023/10/01 00:47:51;;;;;;;;;;;;;;;;;;5052004;28;20400;-63
2023/10/01 00:50:21;;;;;;;;;;;;;;;;;;5052594;28;19921;-63
2023/10/01 00:52:47;;;;;;;;;;;;;;;;;;5051999;28;20345;-64
2023/10/01 00:55:14;;;;;;;;;;;;;;;;;;5052199;28;19972;-63
2023/10/01 00:57:41;;;;;;;;;;;;;;;;;;5052352;28;19928;-63
2023/10/01 01:00:12;;;;;;;;;;;;;;;;;;5050983;28;19928;-63
2023/10/01 01:02:38;;;;;;;;;;;;;;;;;;5052396;28;19920;-64
2023/10/01 01:05:20;;;;;;;;;;;;;;;;;;5052089;28;19921;-63
2023/10/01 01:07:47;;;;;;;;;;;;;;;;;;5051987;28;19931;-64
2023/10/01 01:10:16;;;;;;;;;;;;;;;;;;5050121;28;19924;-64
2023/10/01 01:12:41;;;;;;;;;;;;;;;;;;5052058;28;19936;-63
2023/10/01 01:15:12;;;;;;;;;;;;;;;;;;5051864;28;19920;-64
2023/10/01 01:17:38;;;;;;;;;;;;;;;;;;5052064;28;19931;-64
2023/10/01 01:20:09;;;;;;;;;;;;;;;;;;5052224;28;20266;-64
2023/10/01 01:22:36;;;;;;;;;;;;;;;;;;5052024;28;19921;-63
2023/10/01 01:25:10;;;;;;;;;;;;;;;;;;5051944;28;19925;-63
2023/10/01 01:27:36;;;;;;;;;;;;;;;;;;5051654;28;20366;-63
2023/10/01 01:30:07;;;;;;;;;;;;;;;;;;5052173;28;19925;-63
2023/10/01 01:32:34;;;;;;;;;;;;;;;;;;5051775;28;19925;-63
2023/10/01 01:35:02;;;;;;;;;;;;;;;;;;5052001;28;19944;-63
2023/10/01 01:37:46;;;;;;;;;;;;;;;;;;5051766;28;20347;-63
2023/10/01 01:40:25;;;;;;;;;;;;;;;;;;5050501;28;19986;-63
2023/10/01 01:42:52;;;;;;;;;;;;;;;;;;5051716;28;19932;-63
2023/10/01 01:45:25;;;;;;;;;;;;;;;;;;5051774;28;19925;-63
2023/10/01 01:47:51;;;;;;;;;;;;;;;;;;5051856;28;19929;-63
2023/10/01 01:50:21;;;;;;;;;;;;;;;;;;5051810;28;20451;-63
2023/10/01 01:52:47;;;;;;;;;;;;;;;;;;5051520;28;19925;-63
2023/10/01 01:55:23;;;;;;;;;;;;;;;;;;5054858;28;19925;-63
2023/10/01 01:58:02;;;;;;;;;;;;;;;;;;5037593;28;19925;-63
2023/10/01 02:00:31;;;;;;;;;;;;;;;;;;5055781;28;19927;-64
2023/10/01 02:02:59;;;;;;;;;;;;;;;;;;5055234;28;20432;-64
2023/10/01 02:05:28;;;;;;;;;;;;;;;;;;5055578;28;19925;-64
2023/10/01 02:07:54;;;;;;;;;;;;;;;;;;5053826;28;19928;-63
2023/10/01 02:10:20;;;;;;;;;;;;;;;;;;5054942;28;19920;-63
2023/10/01 02:12:47;;;;;;;;;;;;;;;;;;5054754;28;19963;-63
2023/10/01 02:15:13;;;;;;;;;;;;;;;;;;5054620;28;19929;-64
2023/10/01 02:17:39;;;;;;;;;;;;;;;;;;5054320;28;19925;-62
2023/10/01 02:20:27;;;;;;;;;;;;;;;;;;5053177;28;19931;-63
2023/10/01 02:22:53;;;;;;;;;;;;;;;;;;5036528;28;20644;-64
2023/10/01 02:25:36;;;;;;;;;;;;;;;;;;5054338;28;20011;-64
2023/10/01 02:28:13;;;;;;;;;;;;;;;;;;5054185;28;20027;-62
2023/10/01 02:30:44;;;;;;;;;;;;;;;;;;5054461;28;19928;-62
2023/10/01 02:33:17;;;;;;;;;;;;;;;;;;5054173;28;19925;-65
2023/10/01 02:35:43;;;;;;;;;;;;;;;;;;5054231;28;19928;-64
2023/10/01 02:38:36;;;;;;;;;;;;;;;;;;5052594;28;19921;-62
2023/10/01 02:40:57;;;;;;;;;;;;;;;;;;5053815;28;20344;-63
2023/10/01 02:43:24;;;;;;;;;;;;;;;;;;5052609;28;20015;-63
2023/10/01 02:45:50;;;;;;;;;;;;;;;;;;5053982;28;20385;-63
2023/10/01 02:48:16;;;;;;;;;;;;;;;;;;5054128;28;19921;-63
2023/10/01 02:50:45;;;;;;;;;;;;;;;;;;5053914;28;20321;-63
2023/10/01 02:53:11;;;;;;;;;;;;;;;;;;5052050;28;20004;-63
2023/10/01 02:55:44;;;;;;;;;;;;;;;;;;5053962;28;19928;-63
2023/10/01 02:58:17;;;;;;;;;;;;;;;;;;5052414;28;19970;-63
2023/10/01 03:00:43;;;;;;;;;;;;;;;;;;5053619;28;19967;-63
2023/10/01 03:03:14;;;;;;;;;;;;;;;;;;5053541;28;20360;-63
2023/10/01 03:05:43;;;;;;;;;;;;;;;;;;5052618;28;20374;-63
2023/10/01 03:08:12;;;;;;;;;;;;;;;;;;5053769;28;19921;-63
2023/10/01 03:10:39;;;;;;;;;;;;;;;;;;5054067;28;19920;-64
2023/10/01 03:13:30;;;;;;;;;;;;;;;;;;5054147;28;20285;-64
2023/10/01 03:16:40;;;;;;;;;;;;;;;;;;5053828;28;19928;-64
2023/10/01 03:18:39;;;;;;;;;;;;;;;;;;5054037;28;19921;-63
2023/10/01 03:21:17;;;;;;;;;;;;;;;;;;5053970;28;20262;-63
2023/10/01 03:23:51;;;;;;;;;;;;;;;;;;5052279;28;19975;-63
2023/10/01 03:26:17;;;;;;;;;;;;;;;;;;5053413;28;19920;-63
2023/10/01 03:31:29;;;;;;;;;;;;;;;;;;5053110;28;19921;-63
2023/10/01 03:33:54;;;;;;;;;;;;;;;;;;5052950;28;19983;-63
2023/10/01 03:36:32;;;;;;;;;;;;;;;;;;5053035;28;19991;-63
2023/10/01 03:39:42;;;;;;;;;;;;;;;;;;5052805;28;19928;-63
2023/10/01 03:41:54;;;;;;;;;;;;;;;;;;5049597;28;19924;-63
2023/10/01 03:44:59;;;;;;;;;;;;;;;;;;5052826;28;20023;-63
2023/10/01 03:47:09;;;;;;;;;;;;;;;;;;5052588;28;19921;-63
2023/10/01 03:49:43;;;;;;;;;;;;;;;;;;5052850;28;19920;-63
2023/10/01 03:52:09;;;;;;;;;;;;;;;;;;5052952;28;20341;-63
2023/10/01 03:57:20;;;;;;;;;;;;;;;;;;5052925;28;20351;-63
2023/10/01 03:59:52;;;;;;;;;;;;;;;;;;5052492;28;20016;-63
2023/10/01 04:02:27;;;;;;;;;;;;;;;;;;5034630;28;19963;-63
2023/10/01 04:04:56;;;;;;;;;;;;;;;;;;5052405;28;19920;-63
2023/10/01 04:07:22;;;;;;;;;;;;;;;;;;5051161;28;19921;-63
2023/10/01 04:09:50;;;;;;;;;;;;;;;;;;5052548;28;20329;-63
2023/10/01 04:12:20;;;;;;;;;;;;;;;;;;5052365;28;20012;-63
2023/10/01 04:14:49;;;;;;;;;;;;;;;;;;5052077;28;19976;-64
2023/10/01 04:17:17;;;;;;;;;;;;;;;;;;5052153;28;19950;-63
2023/10/01 04:19:43;;;;;;;;;;;;;;;;;;5053070;28;19921;-63
2023/10/01 04:22:09;;;;;;;;;;;;;;;;;;5051842;28;19928;-63
2023/10/01 04:24:36;;;;;;;;;;;;;;;;;;5052013;28;19999;-63
2023/10/01 04:27:18;;;;;;;;;;;;;;;;;;5052879;28;20035;-63
2023/10/01 04:29:57;;;;;;;;;;;;;;;;;;5052821;28;19947;-63
2023/10/01 04:32:23;;;;;;;;;;;;;;;;;;5052757;28;19925;-63
2023/10/01 04:34:49;;;;;;;;;;;;;;;;;;5051409;28;19929;-63
2023/10/01 04:37:36;;;;;;;;;;;;;;;;;;5052538;28;19921;-63
2023/10/01 04:40:02;;;;;;;;;;;;;;;;;;5052459;28;19932;-63
2023/10/01 04:42:28;;;;;;;;;;;;;;;;;;5052623;28;19925;-63
2023/10/01 04:44:54;;;;;;;;;;;;;;;;;;5052441;28;19943;-63
2023/10/01 04:47:40;;;;;;;;;;;;;;;;;;5052516;28;19921;-63
2023/10/01 04:50:06;;;;;;;;;;;;;;;;;;5051378;28;20361;-63
2023/10/01 04:52:32;;;;;;;;;;;;;;;;;;5052173;28;20779;-63
2023/10/01 04:54:58;;;;;;;;;;;;;;;;;;5057908;22;20337;-63
2023/10/01 04:57:25;;;;;;;;;;;;;;;;;;5052078;28;19921;-63
2023/10/01 04:59:56;;;;;;;;;;;;;;;;;;5052180;28;20573;-63
2023/10/01 05:02:23;;;;;;;;;;;;;;;;;;5050795;28;19925;-63
2023/10/01 05:04:49;;;;;;;;;;;;;;;;;;5052417;28;20345;-63
2023/10/01 05:07:15;;;;;;;;;;;;;;;;;;5050766;28;19927;-63
2023/10/01 05:09:41;;;;;;;;;;;;;;;;;;5052259;28;20380;-63
2023/10/01 05:12:08;;;;;;;;;;;;;;;;;;5051950;28;19921;-63
2023/10/01 05:14:52;;;;;;;;;;;;;;;;;;5051997;28;19928;-63
2023/10/01 05:17:18;;;;;;;;;;;;;;;;;;5052109;28;19924;-63
2023/10/01 05:19:44;;;;;;;;;;;;;;;;;;5051919;28;20106;-63
2023/10/01 05:22:11;;;;;;;;;;;;;;;;;;5052123;28;19927;-63
2023/10/01 05:24:40;;;;;;;;;;;;;;;;;;5050799;28;19971;-63
2023/10/01 05:27:09;;;;;;;;;;;;;;;;;;5051813;28;20358;-63
2023/10/01 05:29:35;;;;;;;;;;;;;;;;;;5051432;28;19987;-63
2023/10/01 05:32:02;;;;;;;;;;;;;;;;;;5052090;28;19964;-63
2023/10/01 05:34:28;;;;;;;;;;;;;;;;;;5051959;28;20011;-63
2023/10/01 05:37:08;;;;;;;;;;;;;;;;;;5050506;28;19931;-63
2023/10/01 05:39:54;;;;;;;;;;;;;;;;;;5051915;28;19947;-63
2023/10/01 05:42:19;;;;;;;;;;;;;;;;;;5051856;28;19921;-62
2023/10/01 05:44:45;;;;;;;;;;;;;;;;;;5051703;28;19947;-62
2023/10/01 05:47:11;;;;;;;;;;;;;;;;;;5051958;28;19921;-62
2023/10/01 05:49:49;;;;;;;;;;;;;;;;;;5051832;28;20007;-62
2023/10/01 05:52:15;;;;;;;;;;;;;;;;;;5051371;28;19921;-62
2023/10/01 05:54:50;;;;;;;;;;;;;;;;;;5051449;28;19989;-63
2023/10/01 05:57:16;;;;;;;;;;;;;;;;;;5051589;28;19921;-63
2023/10/01 05:59:42;;;;;;;;;;;;;;;;;;5051617;28;20312;-63
2023/10/01 06:02:24;;;;;;;;;;;;;;;;;;5051260;28;19924;-63
2023/10/01 06:04:51;;;;;;;;;;;;;;;;;;5049952;28;19932;-63
2023/10/01 06:07:17;;;;;;;;;;;;;;;;;;5050939;28;20033;-63
2023/10/01 06:09:44;;;;;;;;;;;;;;;;;;5049816;28;20320;-63
2023/10/01 06:12:10;;;;;;;;;;;;;;;;;;5051034;28;20012;-63
2023/10/01 06:14:37;;;;;;;;;;;;;;;;;;5050629;28;19925;-63
2023/10/01 06:17:05;;;;;;;;;;;;;;;;;;5050932;28;19958;-63
2023/10/01 06:19:34;;;;;;;;;;;;;;;;;;5051468;28;19921;-63
2023/10/01 06:22:12;;;;;;;;;;;;;;;;;;5050050;28;20033;-63
2023/10/01 06:24:38;;;;;;;;;;;;;;;;;;5051629;28;20453;-63
2023/10/01 06:27:06;;;;;;;;;;;;;;;;;;5051571;28;19921;-63
2023/10/01 06:29:33;;;;;;;;;;;;;;;;;;5051356;28;19928;-63
2023/10/01 06:32:02;;;;;;;;;;;;;;;;;;5051340;28;19940;-63
2023/10/01 06:34:32;;;;;;;;;;;;;;;;;;5051202;28;19924;-63
2023/10/01 06:37:01;;;;;;;;;;;;;;;;;;5051247;28;19921;-63
2023/10/01 06:39:27;;;;;;;;;;;;;;;;;;5051442;28;19929;-63
2023/10/01 06:41:53;;;;;;;;;;;;;;;;;;5053907;28;19927;-63
2023/10/01 06:44:19;;;;;;;;;;;;;;;;;;5054549;28;19925;-63
2023/10/01 06:46:47;;;;;;;;;;;;;;;;;;5036754;28;19924;-63
2023/10/01 06:49:13;;;;;;;;;;;;;;;;;;5053214;28;19929;-63
2023/10/01 06:51:45;;;;;;;;;;;;;;;;;;5054693;28;19927;-63
2023/10/01 06:54:11;;;;;;;;;;;;;;;;;;5054389;28;19925;-63
2023/10/01 06:56:47;;;;;;;;;;;;;;;;;;5036665;28;20020;-63
2023/10/01 06:59:13;;;;;;;;;;;;;;;;;;5053181;28;19963;-63
2023/10/01 07:01:49;;;;;;;;;;;;;;;;;;5054529;28;20329;-63
2023/10/01 07:04:15;;;;;;;;;;;;;;;;;;5054464;28;19955;-63
2023/10/01 07:06:44;;;;;;;;;;;;;;;;;;5054284;28;19920;-63
2023/10/01 07:09:27;;;;;;;;;;;;;;;;;;5052937;28;19921;-63
2023/10/01 07:11:53;;;;;;;;;;;;;;;;;;5053398;28;19928;-63
2023/10/01 07:14:30;;;;;;;;;;;;;;;;;;5052110;28;19924;-63
2023/10/01 07:16:56;;;;;;;;;;;;;;;;;;5053370;28;20370;-63
2023/10/01 07:19:22;;;;;;;;;;;;;;;;;;5053264;28;19978;-64
2023/10/01 07:21:56;;;;;;;;;;;;;;;;;;5053206;28;19921;-63
2023/10/01 07:24:23;;;;;;;;;;;;;;;;;;5053463;28;19960;-63
2023/10/01 07:26:50;;;;;;;;;;;;;;;;;;5053304;28;19925;-63
2023/10/01 07:29:16;;;;;;;;;;;;;;;;;;5054180;28;19921;-63
2023/10/01 07:31:43;;;;;;;;;;;;;;;;;;5053931;28;19929;-63
2023/10/01 07:34:16;;;;;;;;;;;;;;;;;;5053889;28;19979;-63
2023/10/01 07:36:45;;;;;;;;;;;;;;;;;;5053858;28;19925;-63
2023/10/01 07:39:15;;;;;;;;;;;;;;;;;;5053758;28;19921;-63
2023/10/01 07:41:44;;;;;;;;;;;;;;;;;;5053762;28;19970;-63
2023/10/01 07:44:11;;;;;;;;;;;;;;;;;;5053562;28;19925;-63
2023/10/01 07:46:36;;;;;;;;;;;;;;;;;;5053548;28;19921;-63
2023/10/01 07:49:02;;;;;;;;;;;;;;;;;;5053676;28;19935;-63
2023/10/01 07:51:35;;;;;;;;;;;;;;;;;;5053096;28;20258;-63
2023/10/01 07:54:02;;;;;;;;;;;;;;;;;;5053061;28;20289;-63
2023/10/01 07:56:28;;;;;;;;;;;;;;;;;;5053784;28;19920;-63
2023/10/01 07:59:16;;;;;;;;;;;;;;;;;;5053524;28;19921;-63
2023/10/01 08:01:42;;;;;;;;;;;;;;;;;;5053529;28;19925;-63
2023/10/01 08:04:08;;;;;;;;;;;;;;;;;;5051790;28;20239;-63
2023/10/01 08:06:43;;;;;;;;;;;;;;;;;;5053189;28;20282;-63
2023/10/01 08:09:13;;;;;;;;;;;;;;;;;;5053090;28;19964;-63
2023/10/01 08:14:26;;;;;;;;;;;;;;;;;;5053017;28;19929;-63
2023/10/01 08:16:53;;;;;;;;;;;;;;;;;;5053185;28;19924;-63
2023/10/01 08:19:22;;;;;;;;;;;;;;;;;;5052878;28;20445;-63
2023/10/01 08:21:50;;;;;;;;;;;;;;;;;;5053143;28;20058;-63
2023/10/01 08:24:18;;;;;;;;;;;;;;;;;;5052719;28;19972;-63
2023/10/01 08:26:44;;;;;;;;;;;;;;;;;;5052796;28;19921;-63
2023/10/01 08:29:14;;;;;;;;;;;;;;;;;;5053011;28;19925;-63
2023/10/01 08:32:08;;;;;;;;;;;;;;;;;;5052655;28;19932;-63
2023/10/01 08:34:35;;;;;;;;;;;;;;;;;;5052476;28;19951;-63
2023/10/01 08:37:07;;;;;;;;;;;;;;;;;;5052915;28;19979;-63
2023/10/01 08:40:13;;;;;;;;;;;;;;;;;;5052587;28;20392;-63
2023/10/01 08:42:28;;;;;;;;;;;;;;;;;;5050432;28;19924;-63
2023/10/01 08:44:54;;;;;;;;;;;;;;;;;;5052599;28;19921;-63
2023/10/01 08:47:36;;;;;;;;;;;;;;;;;;5052509;28;20265;-63
2023/10/01 08:52:52;;;;;;;;;;;;;;;;;;5052410;28;19921;-63
2023/10/01 08:55:20;;;;;;;;;;;;;;;;;;5052137;28;20277;-63
2023/10/01 08:57:46;;;;;;;;;;;;;;;;;;5052595;28;20015;-63
2023/10/01 09:00:19;;;;;;;;;;;;;;;;;;5052586;28;20317;-63
2023/10/01 09:02:45;;;;;;;;;;;;;;;;;;5052047;28;19921;-63
2023/10/01 09:05:11;;;;;;;;;;;;;;;;;;5033798;28;19967;-63
2023/10/01 09:07:37;;;;;;;;;;;;;;;;;;5050949;28;19974;-63
2023/10/01 09:10:05;;;;;;;;;;;;;;;;;;5052270;28;20319;-63
2023/10/01 09:12:31;;;;;;;;;;;;;;;;;;5052215;28;20050;-63
2023/10/01 09:14:57;;;;;;;;;;;;;;;;;;5051570;28;20424;-63
2023/10/01 09:17:26;;;;;;;;;;;;;;;;;;5051028;28;19971;-63
2023/10/01 09:19:52;;;;;;;;;;;;;;;;;;5051636;28;20020;-63
2023/10/01 09:24:56;;;;;;;;;;;;;;;;;;5051157;28;19967;-63
2023/10/01 09:27:28;;;;;;;;;;;;;;;;;;5050774;28;19964;-63
2023/10/01 09:29:57;;;;;;;;;;;;;;;;;;5050986;28;19932;-64
2023/10/01 09:32:23;;;;;;;;;;;;;;;;;;5051184;28;19924;-63
2023/10/01 09:34:53;;;;;;;;;;;;;;;;;;5049839;28;19971;-63
2023/10/01 09:37:34;;;;;;;;;;;;;;;;;;5049623;28;19982;-62
2023/10/01 09:42:45;;;;;;;;;;;;;;;;;;5050312;28;20394;-63
2023/10/01 09:45:24;;;;;;;;;;;;;;;;;;5051996;28;19921;-63
2023/10/01 09:47:56;;;;;;;;;;;;;;;;;;5051496;28;20378;-63
2023/10/01 09:50:22;;;;;;;;;;;;;;;;;;5051855;28;19951;-63
2023/10/01 09:52:48;;;;;;;;;;;;;;;;;;5058398;28;19921;-63
2023/10/01 09:55:26;;;;;;;;;;;;;;;;;;5051427;28;19925;-63
2023/10/01 09:57:52;;;;;;;;;;;;;;;;;;5051521;28;19924;-62
2023/10/01 10:00:20;;;;;;;;;;;;;;;;;;5051834;28;19921;-63
2023/10/01 10:02:53;;;;;;;;;;;;;;;;;;5050316;28;19920;-63
2023/10/01 10:05:24;;;;;;;;;;;;;;;;;;5051889;28;19920;-63
2023/10/01 10:07:50;;;;;;;;;;;;;;;;;;5051815;28;19920;-63
2023/10/01 10:10:24;;;;;;;;;;;;;;;;;;5051753;28;19924;-63
2023/10/01 10:12:53;;;;;;;;;;;;;;;;;;5051545;28;19924;-63
2023/10/01 10:15:19;;;;;;;;;;;;;;;;;;5052161;28;19928;-63
2023/10/01 10:17:45;;;;;;;;;;;;;;;;;;5055227;28;19920;-63
2023/10/01 10:20:26;;;;;;;;;;;;;;;;;;5055331;28;19975;-63
2023/10/01 10:22:52;;;;;;;;;;;;;;;;;;5055031;28;20397;-63
2023/10/01 10:25:18;;;;;;;;;;;;;;;;;;5055309;28;20003;-63
2023/10/01 10:27:44;;;;;;;;;;;;;;;;;;5055131;28;19974;-63
2023/10/01 10:30:14;;;;;;;;;;;;;;;;;;5055314;28;19920;-63
2023/10/01 10:32:44;;;;;;;;;;;;;;;;;;5055407;28;19921;-63
2023/10/01 10:35:14;;;;;;;;;;;;;;;;;;5055082;28;19952;-64
2023/10/01 10:37:53;;;;;;;;;;;;;;;;;;5054771;28;19928;-64
2023/10/01 10:42:48;;;;;;;;;;;;;;;;;;5053445;28;20007;-63
2023/10/01 10:45:21;;;;;;;;;;;;;;;;;;5054243;28;21284;-64
2023/10/01 10:47:47;;;;;;;;;;;;;;;;;;5054563;28;20019;-64
2023/10/01 10:50:15;;;;;;;;;;;;;;;;;;5054621;28;19968;-64
2023/10/01 10:52:41;;;;;;;;;;;;;;;;;;5053148;28;20377;-64
2023/10/01 10:55:15;;;;;;;;;;;;;;;;;;5054451;28;19968;-64
2023/10/01 10:57:48;;;;;;;;;;;;;;;;;;5053405;28;19935;-63
2023/10/01 11:00:23;;;;;;;;;;;;;;;;;;5054680;28;19935;-63
2023/10/01 11:02:55;;;;;;;;;;;;;;;;;;5054701;28;20389;-63
2023/10/01 11:05:20;;;;;;;;;;;;;;;;;;5054787;28;20034;-63
2023/10/01 11:07:47;;;;;;;;;;;;;;;;;;5054347;28;20366;-63
2023/10/01 11:10:13;;;;;;;;;;;;;;;;;;5053172;28;19970;-63
2023/10/01 11:12:39;;;;;;;;;;;;;;;;;;5054349;28;19921;-63
2023/10/01 11:15:23;;;;;;;;;;;;;;;;;;5054387;28;19963;-63
2023/10/01 11:17:49;;;;;;;;;;;;;;;;;;5054271;28;19967;-63
2023/10/01 11:20:24;;;;;;;;;;;;;;;;;;5054264;28;20357;-63
2023/10/01 11:22:54;;;;;;;;;;;;;;;;;;5054120;28;19920;-63
2023/10/01 11:25:20;;;;;;;;;;;;;;;;;;5054001;28;20305;-63
2023/10/01 11:27:47;;;;;;;;;;;;;;;;;;5053259;28;19935;-63
2023/10/01 11:30:13;;;;;;;;;;;;;;;;;;5053858;28;19977;-63
2023/10/01 11:32:40;;;;;;;;;;;;;;;;;;5053846;28;19925;-63
2023/10/01 11:35:14;;;;;;;;;;;;;;;;;;5053747;28;19928;-63
2023/10/01 11:37:40;;;;;;;;;;;;;;;;;;5053740;28;19925;-63
2023/10/01 11:40:06;;;;;;;;;;;;;;;;;;5053547;28;19921;-63
2023/10/01 11:42:38;;;;;;;;;;;;;;;;;;5053745;28;19928;-63
2023/10/01 11:45:12;;;;;;;;;;;;;;;;;;5053794;28;19931;-63
2023/10/01 11:47:38;;;;;;;;;;;;;;;;;;5052186;28;20020;-63
2023/10/01 11:50:07;;;;;;;;;;;;;;;;;;5053674;28;19921;-63
2023/10/01 11:52:33;;;;;;;;;;;;;;;;;;5053775;28;19924;-64
2023/10/01 11:54:59;;;;;;;;;;;;;;;;;;5053706;28;19925;-64
2023/10/01 11:57:31;;;;;;;;;;;;;;;;;;5053844;28;20298;-64
2023/10/01 11:59:58;;;;;;;;;;;;;;;;;;5053987;28;19924;-64
2023/10/01 12:02:25;;;;;;;;;;;;;;;;;;5053982;28;19924;-64
2023/10/01 12:04:56;;;;;;;;;;;;;;;;;;5053648;28;19943;-64
2023/10/01 12:07:22;;;;;;;;;;;;;;;;;;5052353;28;19963;-64
2023/10/01 12:09:48;;;;;;;;;;;;;;;;;;5053705;28;20007;-64
2023/10/01 12:12:14;;;;;;;;;;;;;;;;;;5053938;28;19964;-64
2023/10/01 12:14:53;;;;;;;;;;;;;;;;;;5052168;28;19975;-64
2023/10/01 12:17:23;;;;;;;;;;;;;;;;;;5053587;28;20382;-64
2023/10/01 12:19:50;;;;;;;;;;;;;;;;;;5053328;28;20427;-63
2023/10/01 12:22:16;;;;;;;;;;;;;;;;;;5052259;28;19978;-63
2023/10/01 12:24:45;;;;;;;;;;;;;;;;;;5053631;28;19952;-63
2023/10/01 12:27:29;;;;;;;;;;;;;;;;;;5053411;28;19943;-63
2023/10/01 12:29:55;;;;;;;;;;;;;;;;;;5053200;28;19931;-63
2023/10/01 12:32:21;;;;;;;;;;;;;;;;;;5035214;28;19921;-63
2023/10/01 12:34:47;;;;;;;;;;;;;;;;;;5053244;28;19961;-63
2023/10/01 12:40:16;;;;;;;;;;;;;;;;;;5053257;28;19925;-64
2023/10/01 12:42:50;;;;;;;;;;;;;;;;;;5052986;28;19979;-63
2023/10/01 12:45:19;;;;;;;;;;;;;;;;;;5053020;28;20484;-63
2023/10/01 12:47:50;;;;;;;;;;;;;;;;;;5053191;28;19966;-63
2023/10/01 12:50:22;;;;;;;;;;;;;;;;;;5052994;28;19921;-64
2023/10/01 12:52:48;;;;;;;;;;;;;;;;;;5053167;28;19971;-64
2023/10/01 12:55:14;;;;;;;;;;;;;;;;;;5052764;28;19924;-64
2023/10/01 12:57:41;;;;;;;;;;;;;;;;;;5052726;28;19921;-64
2023/10/01 13:00:23;;;;;;;;;;;;;;;;;;5052594;28;19955;-64
2023/10/01 13:02:50;;;;;;;;;;;;;;;;;;5052776;28;19921;-64
2023/10/01 13:05:27;;;;;;;;;;;;;;;;;;5053081;28;19975;-64
2023/10/01 13:07:56;;;;;;;;;;;;;;;;;;5051665;28;19986;-64
2023/10/01 13:10:35;;;;;;;;;;;;;;;;;;5052965;28;19931;-64
2023/10/01 13:13:05;;;;;;;;;;;;;;;;;;5052975;28;19974;-64
2023/10/01 13:15:33;;;;;;;;;;;;;;;;;;5052932;28;19958;-64
2023/10/01 13:18:04;;;;;;;;;;;;;;;;;;5052661;28;19924;-64
2023/10/01 13:20:30;;;;;;;;;;;;;;;;;;5052779;28;19927;-63
2023/10/01 13:22:59;;;;;;;;;;;;;;;;;;5052740;28;20325;-64
2023/10/01 13:25:25;;;;;;;;;;;;;;;;;;5052417;28;20015;-64
2023/10/01 13:28:07;;;;;;;;;;;;;;;;;;5051041;28;19921;-64
2023/10/01 13:31:03;;;;;;;;;;;;;;;;;;5052185;28;19925;-64
2023/10/01 13:36:23;;;;;;;;;;;;;;;;;;5052592;28;19921;-64
2023/10/01 13:38:56;;;;;;;;;;;;;;;;;;5050983;28;19921;-64
2023/10/01 14:08:43;;;;;;;;;;;;;;;;;;5056002;28;19925;-64
2023/10/01 14:11:09;;;;;;;;;;;;;;;;;;5055963;28;19921;-64
2023/10/01 14:13:36;;;;;;;;;;;;;;;;;;5054534;28;19932;-64
2023/10/01 14:18:53;;;;;;;;;;;;;;;;;;5055899;28;19924;-64
2023/10/01 14:21:21;;;;;;;;;;;;;;;;;;5055931;28;19920;-64
2023/10/01 14:23:47;;;;;;;;;;;;;;;;;;5055564;28;20067;-64
2023/10/01 14:26:14;;;;;;;;;;;;;;;;;;5053939;28;20010;-64
2023/10/01 14:28:45;;;;;;;;;;;;;;;;;;5053761;28;19928;-64
2023/10/01 14:31:11;;;;;;;;;;;;;;;;;;5055108;28;19999;-64
2023/10/01 14:33:40;;;;;;;;;;;;;;;;;;5054758;28;20323;-64
2023/10/01 14:36:06;;;;;;;;;;;;;;;;;;5054588;28;19921;-64
2023/10/01 14:38:39;;;;;;;;;;;;;;;;;;5054302;28;19947;-64
2023/10/01 14:41:05;;;;;;;;;;;;;;;;;;5054609;28;20351;-64
2023/10/01 14:43:31;;;;;;;;;;;;;;;;;;5054276;28;19970;-64
2023/10/01 14:45:57;;;;;;;;;;;;;;;;;;5052690;28;19924;-64
2023/10/01 14:48:23;;;;;;;;;;;;;;;;;;5054703;28;20351;-64
2023/10/01 14:50:49;;;;;;;;;;;;;;;;;;5055476;28;19921;-63
2023/10/01 14:53:18;;;;;;;;;;;;;;;;;;5050081;28;20035;-63
2023/10/01 14:55:44;;;;;;;;;;;;;;;;;;5035283;28;19964;-63
2023/10/01 14:58:13;;;;;;;;;;;;;;;;;;5035214;28;19928;-63
2023/10/01 15:00:49;;;;;;;;;;;;;;;;;;5034713;28;20008;-64
2023/10/01 15:03:15;;;;;;;;;;;;;;;;;;5034502;28;19971;-64
2023/10/01 15:05:41;;;;;;;;;;;;;;;;;;5035039;28;19921;-64
2023/10/01 15:08:07;;;;;;;;;;;;;;;;;;5035287;28;19925;-64
2023/10/01 15:10:32;;;;;;;;;;;;;;;;;;5034895;28;19925;-64
2023/10/01 15:13:01;;;;;;;;;;;;;;;;;;5050330;28;19925;-63
2023/10/01 15:15:30;;;;;;;;;;;;;;;;;;5034875;28;19925;-64
2023/10/01 15:17:56;;;;;;;;;;;;;;;;;;5034977;28;19921;-64
2023/10/01 15:20:30;;;;;;;;;;;;;;;;;;5033469;28;20402;-64
2023/10/01 15:22:56;;;;;;;;;;;;;;;;;;5034592;28;19928;-64
2023/10/01 15:25:22;;;;;;;;;;;;;;;;;;5034698;28;19922;-64
2023/10/01 15:27:48;;;;;;;;;;;;;;;;;;5034645;28;19932;-64
2023/10/01 15:30:21;;;;;;;;;;;;;;;;;;5033208;28;19921;-64
2023/10/01 15:32:59;;;;;;;;;;;;;;;;;;5034333;28;19937;-64
2023/10/01 15:35:25;;;;;;;;;;;;;;;;;;5034325;28;19925;-64
2023/10/01 15:37:51;;;;;;;;;;;;;;;;;;5034498;28;20358;-63
2023/10/01 15:40:26;;;;;;;;;;;;;;;;;;5034493;28;20379;-63
2023/10/01 15:42:55;;;;;;;;;;;;;;;;;;5034200;28;19925;-63
2023/10/01 15:45:23;;;;;;;;;;;;;;;;;;5034219;28;19921;-64
2023/10/01 15:47:54;;;;;;;;;;;;;;;;;;5034006;28;20259;-64
2023/10/01 15:50:37;;;;;;;;;;;;;;;;;;5034195;28;20363;-64
2023/10/01 15:53:04;;;;;;;;;;;;;;;;;;5047536;28;20039;-63
2023/10/01 15:55:33;;;;;;;;;;;;;;;;;;5053954;28;19925;-63
2023/10/01 15:58:02;;;;;;;;;;;;;;;;;;5053823;28;19927;-63
2023/10/01 16:00:30;;;;;;;;;;;;;;;;;;5053839;28;19986;-63
2023/10/01 16:03:02;;;;;;;;;;;;;;;;;;5053670;28;19928;-63
2023/10/01 16:05:28;;;;;;;;;;;;;;;;;;5053618;28;19920;-63
2023/10/01 16:07:57;;;;;;;;;;;;;;;;;;5053747;28;19998;-63
2023/10/01 16:10:23;;;;;;;;;;;;;;;;;;5053592;28;20382;-63
2023/10/01 16:12:49;;;;;;;;;;;;;;;;;;5051635;28;19976;-63
2023/10/01 16:15:17;;;;;;;;;;;;;;;;;;5053576;28;19921;-64
2023/10/01 16:17:43;;;;;;;;;;;;;;;;;;5051836;28;19929;-64
2023/10/01 16:20:09;;;;;;;;;;;;;;;;;;5052290;28;19973;-64
2023/10/01 16:22:35;;;;;;;;;;;;;;;;;;5053353;28;20030;-64
2023/10/01 16:25:10;;;;;;;;;;;;;;;;;;5053319;28;20552;-64
2023/10/01 16:27:37;;;;;;;;;;;;;;;;;;5053073;28;19925;-63
2023/10/01 16:30:11;;;;;;;;;;;;;;;;;;5053017;28;20476;-63
2023/10/01 16:32:37;;;;;;;;;;;;;;;;;;5052953;28;20386;-63
2023/10/01 16:35:03;;;;;;;;;;;;;;;;;;5052945;28;20021;-63
2023/10/01 16:37:29;;;;;;;;;;;;;;;;;;5051495;28;19925;-63
2023/10/01 16:40:00;;;;;;;;;;;;;;;;;;5053048;28;20267;-63
2023/10/01 16:42:26;;;;;;;;;;;;;;;;;;5053171;28;20015;-64
2023/10/01 16:44:57;;;;;;;;;;;;;;;;;;5052873;28;20050;-64
2023/10/01 16:47:30;;;;;;;;;;;;;;;;;;5053058;28;19935;-64
2023/10/01 16:49:56;;;;;;;;;;;;;;;;;;5052603;28;19954;-64
2023/10/01 16:52:23;;;;;;;;;;;;;;;;;;5052523;28;19944;-64
2023/10/01 16:54:49;;;;;;;;;;;;;;;;;;5052267;28;20383;-63
2023/10/01 16:57:15;;;;;;;;;;;;;;;;;;5052909;28;19925;-63
2023/10/01 16:59:41;;;;;;;;;;;;;;;;;;5052533;28;19927;-63
2023/10/01 17:02:14;;;;;;;;;;;;;;;;;;5052370;28;19921;-63
2023/10/01 17:04:40;;;;;;;;;;;;;;;;;;5052063;28;19920;-63
2023/10/01 17:07:14;;;;;;;;;;;;;;;;;;5052061;28;20408;-63
2023/10/01 17:09:40;;;;;;;;;;;;;;;;;;5056526;22;19971;-63
2023/10/01 17:12:07;;;;;;;;;;;;;;;;;;5052317;28;19921;-63
2023/10/01 17:14:33;;;;;;;;;;;;;;;;;;5034842;28;19925;-63
2023/10/01 17:17:02;;;;;;;;;;;;;;;;;;5041496;28;20453;-63
2023/10/01 17:19:28;;;;;;;;;;;;;;;;;;5052357;28;20297;-63
2023/10/01 17:21:56;;;;;;;;;;;;;;;;;;5052428;28;19925;-63
2023/10/01 17:24:24;;;;;;;;;;;;;;;;;;5051598;28;20007;-63
2023/10/01 17:26:51;;;;;;;;;;;;;;;;;;5039361;28;19964;-63
2023/10/01 17:29:20;;;;;;;;;;;;;;;;;;5030980;28;20484;-63
2023/10/01 17:31:48;;;;;;;;;;;;;;;;;;5030975;28;19925;-64
2023/10/01 17:34:23;;;;;;;;;;;;;;;;;;5032423;28;19929;-63
2023/10/01 17:36:51;;;;;;;;;;;;;;;;;;5032428;28;19926;-63
2023/10/01 17:39:24;;;;;;;;;;;;;;;;;;5032401;28;20298;-63
2023/10/01 17:41:56;;;;;;;;;;;;;;;;;;5014624;28;19921;-64
2023/10/01 17:44:24;;;;;;;;;;;;;;;;;;5049019;28;19929;-63
2023/10/01 17:46:56;;;;;;;;;;;;;;;;;;5052108;28;19921;-64
2023/10/01 17:49:26;;;;;;;;;;;;;;;;;;5052227;28;19924;-64
2023/10/01 17:51:54;;;;;;;;;;;;;;;;;;5052252;28;19927;-64
2023/10/01 17:54:20;;;;;;;;;;;;;;;;;;5051965;28;19925;-64
2023/10/01 17:56:46;;;;;;;;;;;;;;;;;;5052179;28;19932;-64